Cruise inventory

FRV Scotia 1996S

Cruise summary report

Cruise Info. 
Ship name (ship code)FRV Scotia (749S)
Cruise identifier1996S
Cruise period1996-11-29 — 1996-12-18
StatusCompleted
Port of departureAberdeen, United Kingdom
Port of returnAberdeen, United Kingdom
ObjectivesTo carry out a combined acoustic, trawling and CTD survey on the western mackerel stock immediately prior to and during the start of the spawing migration. This study is to be carried out as part of the EC funded AIR program SEFOS (Project code C514).
Chief scientistDavid G Reid (Scottish Office Agriculture Environment and Fisheries Department Aberdeen Marine Laboratory)
ProjectAir SEFOS
Coordinating bodyEC
Ocean/sea areas 
GeneralNorth Sea
SpecificNorth Sea, Viking Bank
Measurements 
Physical oceanography 
CTD stationsQuantity: number of stations = 67
Description: SeaBird CTD
Subsurface temperature and salinity measurementsDescription: T and S at 3m, throughout
Current profiler (eg ADCP)Description: VM ADCP
Biology and fisheries 
Pelagic fishDescription: Trawls
Geology and geophysics 
Multi-beam echosounding
Moorings, landers, buoys 
Physical oceanography 
Current meters60° 28' 0" N  3° 13' 0" E — Depl. 2 ACM 30.11.96. LOST. Surface buoy only recovered adrift
Data held at BODC 
Series/Profiles 
62  CTD/STD cast
Electrical conductivity of the water column
Vertical spatial coordinates
Salinity of the water column
Temperature of the water column
Electrical conductivity of the water column
Vertical spatial coordinates
Salinity of the water column
Temperature of the water column

BODC idDate/TimeLocationDoc.
4689621996-12-05 23:05 61° 1' 59" N  2° 25' 34" E  View metadata report for BODC series reference number 468962
4689741996-12-05 23:47 60° 59' 30" N  2° 19' 45" E  View metadata report for BODC series reference number 468974
4689861996-12-06 00:37 60° 57' 1" N  2° 14' 1" E  View metadata report for BODC series reference number 468986
4689981996-12-06 01:16 60° 54' 31" N  2° 8' 28" E  View metadata report for BODC series reference number 468998
4690011996-12-06 01:56 60° 52' 0" N  2° 2' 53" E  View metadata report for BODC series reference number 469001
4690131996-12-11 14:10 60° 42' 58" N  2° 26' 16" E  View metadata report for BODC series reference number 469013
4690251996-12-11 14:50 60° 44' 57" N  2° 32' 55" E  View metadata report for BODC series reference number 469025
4690371996-12-11 15:31 60° 46' 56" N  2° 40' 1" E  View metadata report for BODC series reference number 469037
4690491996-12-11 16:11 60° 48' 56" N  2° 47' 10" E  View metadata report for BODC series reference number 469049
4690501996-12-11 16:39 60° 50' 6" N  2° 50' 37" E  View metadata report for BODC series reference number 469050
4690621996-12-11 17:30 60° 51' 4" N  2° 54' 36" E  View metadata report for BODC series reference number 469062
4690741996-12-11 18:10 60° 52' 1" N  2° 57' 22" E  View metadata report for BODC series reference number 469074
4690861996-12-11 18:56 60° 52' 59" N  3° 1' 5" E  View metadata report for BODC series reference number 469086
4690981996-12-11 19:51 60° 54' 58" N  3° 7' 33" E  View metadata report for BODC series reference number 469098
4691051996-12-11 20:46 60° 57' 4" N  3° 15' 20" E  View metadata report for BODC series reference number 469105
4691171996-12-11 21:42 60° 59' 3" N  3° 21' 56" E  View metadata report for BODC series reference number 469117
4691291996-12-14 14:31 61° 38' 57" N  2° 10' 54" E  View metadata report for BODC series reference number 469129
4691301996-12-14 15:21 61° 36' 43" N  2° 4' 30" E  View metadata report for BODC series reference number 469130
4691421996-12-14 16:12 61° 34' 30" N  1° 57' 33" E  View metadata report for BODC series reference number 469142
4691541996-12-14 17:05 61° 32' 15" N  1° 51' 15" E  View metadata report for BODC series reference number 469154
4691661996-12-14 18:19 61° 30' 49" N  1° 48' 35" E  View metadata report for BODC series reference number 469166
4691781996-12-15 07:10 61° 29' 40" N  1° 45' 1" E  View metadata report for BODC series reference number 469178
4691911996-12-15 07:53 61° 28' 31" N  1° 41' 39" E  View metadata report for BODC series reference number 469191
4692091996-12-15 08:23 61° 27' 25" N  1° 38' 27" E  View metadata report for BODC series reference number 469209
4692101996-12-15 09:02 61° 25' 7" N  1° 31' 49" E  View metadata report for BODC series reference number 469210
4692221996-12-15 09:37 61° 22' 47" N  1° 25' 18" E  View metadata report for BODC series reference number 469222
4692341996-12-15 10:16 61° 20' 31" N  1° 18' 52" E  View metadata report for BODC series reference number 469234
4692461996-12-15 13:42 61° 15' 24" N  2° 10' 4" E  View metadata report for BODC series reference number 469246
4692581996-12-15 14:43 61° 11' 50" N  2° 18' 54" E  View metadata report for BODC series reference number 469258
4692711996-12-15 15:32 61° 8' 20" N  2° 27' 3" E  View metadata report for BODC series reference number 469271
4692831996-12-15 16:04 61° 8' 8" N  2° 29' 57" E  View metadata report for BODC series reference number 469283
4692951996-12-15 18:13 61° 7' 57" N  2° 35' 26" E  View metadata report for BODC series reference number 469295
4693021996-12-15 19:03 61° 7' 47" N  2° 39' 49" E  View metadata report for BODC series reference number 469302
4693141996-12-15 20:33 61° 3' 56" N  2° 35' 53" E  View metadata report for BODC series reference number 469314
4693261996-12-15 23:28 61° 0' 3" N  2° 42' 43" E  View metadata report for BODC series reference number 469326
4693381996-12-16 00:22 60° 56' 28" N  2° 50' 12" E  View metadata report for BODC series reference number 469338
4693511996-12-16 01:13 60° 52' 10" N  2° 55' 37" E  View metadata report for BODC series reference number 469351
4693631996-12-16 02:07 60° 47' 48" N  3° 0' 49" E  View metadata report for BODC series reference number 469363
4693751996-12-16 03:21 60° 43' 8" N  3° 5' 12" E  View metadata report for BODC series reference number 469375
4693871996-12-16 16:07 61° 8' 16" N  2° 28' 50" E  View metadata report for BODC series reference number 469387
4693991996-12-16 17:05 61° 11' 37" N  2° 19' 17" E  View metadata report for BODC series reference number 469399
4694061996-12-16 18:09 61° 15' 33" N  2° 10' 1" E  View metadata report for BODC series reference number 469406
4694181996-12-16 18:45 61° 16' 43" N  2° 13' 14" E  View metadata report for BODC series reference number 469418
4694311996-12-16 19:19 61° 18' 7" N  2° 16' 42" E  View metadata report for BODC series reference number 469431
4694431996-12-16 19:58 61° 19' 25" N  2° 20' 43" E  View metadata report for BODC series reference number 469443
4694551996-12-16 20:34 61° 20' 43" N  2° 23' 6" E  View metadata report for BODC series reference number 469455
4694671996-12-16 21:14 61° 21' 58" N  2° 26' 22" E  View metadata report for BODC series reference number 469467
4694791996-12-16 21:54 61° 23' 14" N  2° 29' 37" E  View metadata report for BODC series reference number 469479
4688211996-12-02 22:28 59° 5' 0" N  3° 41' 26" E  View metadata report for BODC series reference number 468821
4688331996-12-02 23:36 59° 4' 59" N  3° 37' 16" E  View metadata report for BODC series reference number 468833
4688451996-12-03 00:14 59° 4' 59" N  3° 33' 2" E  View metadata report for BODC series reference number 468845
4688571996-12-03 00:57 59° 4' 57" N  3° 29' 31" E  View metadata report for BODC series reference number 468857
4688691996-12-03 01:30 59° 4' 58" N  3° 25' 45" E  View metadata report for BODC series reference number 468869
4688701996-12-03 02:03 59° 4' 59" N  3° 21' 56" E  View metadata report for BODC series reference number 468870
4688821996-12-03 02:35 59° 4' 58" N  3° 18' 16" E  View metadata report for BODC series reference number 468882
4688941996-12-03 03:05 59° 4' 58" N  3° 14' 26" E  View metadata report for BODC series reference number 468894
4689011996-12-03 03:33 59° 5' 1" N  3° 10' 41" E  View metadata report for BODC series reference number 468901
4689131996-12-05 18:25 61° 14' 25" N  2° 54' 9" E  View metadata report for BODC series reference number 468913
4689251996-12-05 19:19 61° 11' 52" N  2° 48' 39" E  View metadata report for BODC series reference number 468925
4689371996-12-05 20:25 61° 9' 19" N  2° 42' 58" E  View metadata report for BODC series reference number 468937
4689491996-12-05 21:20 61° 6' 56" N  2° 37' 14" E  View metadata report for BODC series reference number 468949
4689501996-12-05 22:18 61° 4' 30" N  2° 31' 19" E  View metadata report for BODC series reference number 468950